createdAt,value
2023-01-17T00:00:39.577Z,95802.25
2023-01-17T00:01:42.483Z,95804.03
2023-01-17T00:02:45.289Z,95801.44
2023-01-17T00:04:06.633Z,95801.87
2023-01-17T00:05:28.281Z,95802.94
2023-01-17T00:06:49.509Z,95810.28
2023-01-17T00:08:11.018Z,95799.88
2023-01-17T00:09:33.916Z,95804.03
2023-01-17T00:10:41.363Z,95803.19
2023-01-17T00:11:44.275Z,95804.25
2023-01-17T00:12:59.162Z,95800.97
2023-01-17T00:14:02.028Z,95800.13
2023-01-17T00:15:06.344Z,95799.31
2023-01-17T00:16:09.322Z,95789.88
2023-01-17T00:17:12.475Z,95786.31
2023-01-17T00:18:15.629Z,95787.97
2023-01-17T00:19:36.856Z,95785.84
2023-01-17T00:20:58.110Z,95786.31
2023-01-17T00:22:19.448Z,95798.25
2023-01-17T00:23:41.488Z,95805.66
2023-01-17T00:25:02.876Z,95800.13
2023-01-17T00:26:12.741Z,95800.81
2023-01-17T00:27:15.568Z,95797.28
2023-01-17T00:28:18.941Z,95795.03
2023-01-17T00:29:21.740Z,95792.44
2023-01-17T00:30:24.629Z,95792.44
2023-01-17T00:31:27.444Z,95794.59
2023-01-17T00:32:30.350Z,95788.09
2023-01-17T00:33:33.800Z,95785.97
2023-01-17T00:34:36.513Z,95791.97
2023-01-17T00:35:39.318Z,95791.97
2023-01-17T00:36:42.261Z,95796.94
2023-01-17T00:37:45.172Z,95790.31
2023-01-17T00:38:48.225Z,95784.09
2023-01-17T00:39:51.057Z,95785.50
2023-01-17T00:40:54.186Z,95791.03
2023-01-17T00:41:56.967Z,95785.59
2023-01-17T00:43:18.546Z,95784.69
2023-01-17T00:44:40.025Z,95793.63
2023-01-17T00:46:02.898Z,95796.25
2023-01-17T00:47:24.221Z,95794.59
2023-01-17T00:48:45.628Z,95793.19
2023-01-17T00:50:07.202Z,95795.41
2023-01-17T00:51:28.814Z,95793.41
2023-01-17T00:52:50.035Z,95797.06
2023-01-17T00:54:11.581Z,95787.16
2023-01-17T00:55:32.980Z,95779.47
2023-01-17T00:56:54.460Z,95785.13
2023-01-17T00:58:16.320Z,95780.91
2023-01-17T00:59:37.693Z,95781.13
2023-01-17T01:00:59.031Z,95781.81
2023-01-17T01:02:20.981Z,95774.88
2023-01-17T01:03:42.604Z,95772.50
2023-01-17T01:05:04.300Z,95768.59
2023-01-17T01:06:26.347Z,95778.31
2023-01-17T01:07:47.641Z,95782.78
2023-01-17T01:09:09.372Z,95776.03
2023-01-17T01:10:31.170Z,95777.47
2023-01-17T01:11:52.961Z,95781.59
2023-01-17T01:13:14.491Z,95771.56
2023-01-17T01:14:35.729Z,95771.81
2023-01-17T01:15:56.999Z,95768.97
2023-01-17T01:17:18.338Z,95758.91
2023-01-17T01:18:45.634Z,95767.19
2023-01-17T01:20:07.033Z,95762.00
2023-01-17T01:21:28.330Z,95796.69
2023-01-17T01:22:49.679Z,95785.25
2023-01-17T01:24:11.001Z,95794.81
2023-01-17T01:25:32.549Z,95788.78
2023-01-17T01:26:54.411Z,95795.97
2023-01-17T01:28:25.205Z,95793.59
2023-01-17T01:29:46.455Z,95799.97
2023-01-17T01:31:08.102Z,95800.34
2023-01-17T01:32:29.502Z,95806.72
2023-01-17T01:33:32.372Z,95805.06
2023-01-17T01:34:35.157Z,95802.69
2023-01-17T01:35:38.077Z,95797.62
2023-01-17T01:36:40.990Z,95808.25
2023-01-17T01:37:44.110Z,95797.41
2023-01-17T01:38:46.909Z,95803.38
2023-01-17T01:39:49.790Z,95800.31
2023-01-17T01:40:55.595Z,95809.53
2023-01-17T01:41:58.604Z,95813.00
2023-01-17T01:43:06.060Z,95816.06
2023-01-17T01:44:43.600Z,95816.50
2023-01-17T01:45:53.545Z,95817.94
2023-01-17T01:46:56.384Z,95816.50
2023-01-17T01:48:07.239Z,95809.66
2023-01-17T01:49:25.133Z,95807.28
2023-01-17T01:50:28.904Z,95811.53
2023-01-17T01:52:13.916Z,95804.19
2023-01-17T01:53:19.252Z,95798.75
2023-01-17T01:54:31.950Z,95796.63
2023-01-17T01:55:41.145Z,95802.66
2023-01-17T01:56:45.704Z,95784.69
2023-01-17T01:57:52.996Z,95787.19
2023-01-17T01:58:57.486Z,95777.84
2023-01-17T02:00:05.790Z,95774.94
2023-01-17T02:01:09.645Z,95772.22
2023-01-17T02:02:12.791Z,95768.66
2023-01-17T02:03:23.193Z,95759.22
2023-01-17T02:04:28.874Z,95759.06
2023-01-17T02:05:33.738Z,95758.47
2023-01-17T02:06:42.345Z,95758.59
2023-01-17T02:07:57.208Z,95755.66
2023-01-17T02:09:11.241Z,95756.81
2023-01-17T02:10:14.272Z,95751.16
2023-01-17T02:11:17.391Z,95754.34
2023-01-17T02:12:21.367Z,95755.75
2023-01-17T02:13:24.500Z,95752.66
2023-01-17T02:14:27.435Z,95757.59
2023-01-17T02:16:01.149Z,95758.19
2023-01-17T02:17:19.016Z,95759.22
2023-01-17T02:18:40.334Z,95753.34
2023-01-17T02:20:11.936Z,95766.44
2023-01-17T02:21:34.102Z,95751.91
2023-01-17T02:22:54.023Z,95759.22
2023-01-17T02:24:40.443Z,95752.75
2023-01-17T02:26:11.067Z,95747.16
2023-01-17T02:27:26.613Z,95750.91
2023-01-17T02:28:49.269Z,95744.66
2023-01-17T02:30:10.737Z,95753.50
2023-01-17T02:31:32.602Z,95751.53
2023-01-17T02:32:52.618Z,95757.97
2023-01-17T02:34:00.626Z,95743.75
2023-01-17T02:35:25.788Z,95757.72
2023-01-17T02:36:44.896Z,95756.66
2023-01-17T02:37:56.706Z,95762.59
2023-01-17T02:39:09.741Z,95748.87
2023-01-17T02:40:58.096Z,95751.47
2023-01-17T02:42:06.555Z,95746.16
2023-01-17T02:43:14.861Z,95746.75
2023-01-17T02:44:20.335Z,95740.50
2023-01-17T02:45:23.220Z,95741.94
2023-01-17T02:46:26.090Z,95746.84
2023-01-17T02:47:31.502Z,95748.16
2023-01-17T02:48:37.856Z,95741.78
2023-01-17T02:49:40.615Z,95744.88
2023-01-17T02:51:12.417Z,95733.44
2023-01-17T02:52:15.217Z,95736.12
2023-01-17T02:53:49.699Z,95730.19
2023-01-17T02:55:13.181Z,95721.44
2023-01-17T02:57:01.806Z,95725.72
2023-01-17T02:58:26.867Z,95709.97
2023-01-17T02:59:38.701Z,95712.50
2023-01-17T03:00:50.483Z,95702.56
2023-01-17T03:02:33.739Z,95704.97
2023-01-17T03:03:52.135Z,95705.66
2023-01-17T03:05:03.566Z,95698.31
2023-01-17T03:06:17.444Z,95700.59
2023-01-17T03:07:25.335Z,95698.31
2023-01-17T03:08:29.782Z,95695.97
2023-01-17T03:09:33.802Z,95691.59
2023-01-17T03:10:37.052Z,95691.31
2023-01-17T03:11:40.040Z,95692.56
2023-01-17T03:12:43.806Z,95686.22
2023-01-17T03:13:46.620Z,95680.56
2023-01-17T03:14:49.585Z,95687.91
2023-01-17T03:15:52.414Z,95676.56
2023-01-17T03:16:56.125Z,95682.31
2023-01-17T03:18:09.839Z,95680.78
2023-01-17T03:19:15.142Z,95678.75
2023-01-17T03:20:18.151Z,95672.19
2023-01-17T03:21:22.459Z,95666.16
2023-01-17T03:22:25.441Z,95663.44
2023-01-17T03:23:28.354Z,95668.78
2023-01-17T03:24:31.101Z,95668.44
2023-01-17T03:25:33.925Z,95665.13
2023-01-17T03:26:37.014Z,95673.00
2023-01-17T03:27:39.928Z,95668.28
2023-01-17T03:28:43.389Z,95670.59
2023-01-17T03:29:46.200Z,95665.50
2023-01-17T03:30:49.066Z,95670.94
2023-01-17T03:31:51.904Z,95655.84
2023-01-17T03:32:54.849Z,95665.63
2023-01-17T03:33:57.645Z,95665.41
2023-01-17T03:35:00.723Z,95676.03
2023-01-17T03:36:03.914Z,95667.28
2023-01-17T03:37:06.669Z,95663.84
2023-01-17T03:38:09.527Z,95661.47
2023-01-17T03:39:13.174Z,95650.50
2023-01-17T03:40:15.980Z,95652.09
2023-01-17T03:41:18.887Z,95660.44
2023-01-17T03:42:21.886Z,95656.22
2023-01-17T03:43:24.806Z,95647.22
2023-01-17T03:44:27.733Z,95641.69
2023-01-17T03:45:30.629Z,95649.16
2023-01-17T03:46:33.568Z,95646.31
2023-01-17T03:47:36.640Z,95639.22
2023-01-17T03:48:41.888Z,95642.03
2023-01-17T03:49:44.973Z,95645.12
2023-01-17T03:50:51.770Z,95625.31
2023-01-17T03:51:54.736Z,95643.66
2023-01-17T03:52:57.533Z,95636.59
2023-01-17T03:54:00.953Z,95643.66
2023-01-17T03:55:03.997Z,95640.84
2023-01-17T03:56:07.270Z,95644.34
2023-01-17T03:57:10.096Z,95634.19
2023-01-17T03:58:12.967Z,95635.09
2023-01-17T03:59:15.865Z,95638.75
2023-01-17T04:00:19.086Z,95640.53
2023-01-17T04:01:22.131Z,95645.06
2023-01-17T04:02:25.364Z,95643.75
2023-01-17T04:03:28.233Z,95635.09
2023-01-17T04:04:31.356Z,95637.12
2023-01-17T04:05:34.148Z,95644.88
2023-01-17T04:06:36.866Z,95630.38
2023-01-17T04:07:39.974Z,95630.78
2023-01-17T04:08:42.807Z,95629.88
2023-01-17T04:09:46.014Z,95636.72
2023-01-17T04:10:48.983Z,95636.03
2023-01-17T04:11:53.520Z,95637.34
2023-01-17T04:12:56.572Z,95627.66
2023-01-17T04:13:59.561Z,95633.87
2023-01-17T04:15:02.645Z,95635.91
2023-01-17T04:16:06.543Z,95632.09
2023-01-17T04:17:13.227Z,95631.50
2023-01-17T04:18:20.902Z,95639.84
2023-01-17T04:19:23.971Z,95636.56
2023-01-17T04:20:35.010Z,95633.00
2023-01-17T04:21:37.821Z,95641.66
2023-01-17T04:22:40.837Z,95628.19
2023-01-17T04:23:43.977Z,95641.87
2023-01-17T04:24:47.082Z,95641.16
2023-01-17T04:25:49.964Z,95645.12
2023-01-17T04:26:52.851Z,95641.00
2023-01-17T04:27:55.981Z,95651.75
2023-01-17T04:28:58.766Z,95639.28
2023-01-17T04:30:01.561Z,95642.25
2023-01-17T04:31:04.865Z,95648.00
2023-01-17T04:32:07.874Z,95653.44
2023-01-17T04:33:10.798Z,95648.09
2023-01-17T04:34:13.974Z,95656.03
2023-01-17T04:35:16.923Z,95650.59
2023-01-17T04:36:19.928Z,95641.78
2023-01-17T04:37:22.879Z,95641.56
2023-01-17T04:38:25.680Z,95651.03
2023-01-17T04:39:28.478Z,95648.31
2023-01-17T04:40:31.267Z,95638.22
2023-01-17T04:41:34.155Z,95635.13
2023-01-17T04:42:37.417Z,95642.16
2023-01-17T04:43:40.550Z,95644.19
2023-01-17T04:44:43.261Z,95644.06
2023-01-17T04:45:46.496Z,95646.69
2023-01-17T04:46:49.490Z,95641.34
2023-01-17T04:47:52.679Z,95649.09
2023-01-17T04:48:55.492Z,95646.91
2023-01-17T04:49:58.624Z,95646.06
2023-01-17T04:51:02.605Z,95646.28
2023-01-17T04:52:05.577Z,95641.41
2023-01-17T04:53:08.364Z,95640.84
2023-01-17T04:54:11.569Z,95638.69
2023-01-17T04:55:14.426Z,95644.25
2023-01-17T04:56:17.802Z,95642.72
2023-01-17T04:57:21.491Z,95645.53
2023-01-17T04:58:24.578Z,95654.03
2023-01-17T04:59:27.456Z,95650.28
2023-01-17T05:00:30.501Z,95654.41
2023-01-17T05:01:33.443Z,95649.69
2023-01-17T05:02:36.303Z,95640.94
2023-01-17T05:03:39.178Z,95644.06
2023-01-17T05:04:41.943Z,95652.12
2023-01-17T05:05:45.015Z,95656.75
2023-01-17T05:06:47.820Z,95646.69
2023-01-17T05:07:58.535Z,95654.22
2023-01-17T05:09:03.213Z,95654.34
2023-01-17T05:10:07.635Z,95650.81
2023-01-17T05:11:10.797Z,95640.16
2023-01-17T05:12:13.606Z,95646.38
2023-01-17T05:13:17.675Z,95650.19
2023-01-17T05:14:20.540Z,95649.31
2023-01-17T05:15:24.368Z,95645.06
2023-01-17T05:16:27.637Z,95653.91
2023-01-17T05:17:30.558Z,95650.28
2023-01-17T05:18:33.664Z,95645.97
2023-01-17T05:19:37.060Z,95647.38
2023-01-17T05:20:39.899Z,95656.84
2023-01-17T05:21:42.659Z,95657.94
2023-01-17T05:22:47.503Z,95649.41
2023-01-17T05:23:50.855Z,95645.28
2023-01-17T05:24:53.712Z,95650.59
2023-01-17T05:25:56.540Z,95652.59
2023-01-17T05:27:03.267Z,95649.50
2023-01-17T05:28:06.141Z,95655.06
2023-01-17T05:29:10.029Z,95660.50
2023-01-17T05:30:13.220Z,95653.53
2023-01-17T05:31:16.414Z,95654.63
2023-01-17T05:32:19.165Z,95649.31
2023-01-17T05:33:22.013Z,95653.22
2023-01-17T05:34:25.291Z,95652.03
2023-01-17T05:35:35.464Z,95660.19
2023-01-17T05:36:38.213Z,95660.56
2023-01-17T05:37:41.257Z,95665.16
2023-01-17T05:38:43.976Z,95656.41
2023-01-17T05:39:46.827Z,95661.03
2023-01-17T05:40:49.992Z,95666.69
2023-01-17T05:41:52.911Z,95661.84
2023-01-17T05:42:57.956Z,95661.84
2023-01-17T05:44:00.701Z,95670.84
2023-01-17T05:45:03.542Z,95666.91
2023-01-17T05:46:06.576Z,95664.19
2023-01-17T05:47:09.374Z,95672.47
2023-01-17T05:48:12.070Z,95667.72
2023-01-17T05:49:15.082Z,95670.75
2023-01-17T05:50:21.473Z,95683.56
2023-01-17T05:51:24.328Z,95681.69
2023-01-17T05:52:27.197Z,95684.31
2023-01-17T05:53:30.137Z,95683.00
2023-01-17T05:54:32.906Z,95683.81
2023-01-17T05:55:36.192Z,95687.03
2023-01-17T05:56:39.373Z,95693.75
2023-01-17T05:57:43.105Z,95705.56
2023-01-17T05:58:45.849Z,95692.66
2023-01-17T05:59:48.664Z,95696.59
2023-01-17T06:00:51.843Z,95702.84
2023-01-17T06:01:54.741Z,95696.81
2023-01-17T06:02:59.561Z,95701.91
2023-01-17T06:04:02.503Z,95704.06
2023-01-17T06:05:05.757Z,95710.06
2023-01-17T06:06:08.553Z,95714.78
2023-01-17T06:07:11.469Z,95715.50
2023-01-17T06:08:14.507Z,95721.16
2023-01-17T06:09:17.983Z,95723.19
2023-01-17T06:10:22.493Z,95721.78
2023-01-17T06:11:25.362Z,95721.88
2023-01-17T06:12:28.371Z,95720.47
2023-01-17T06:13:31.459Z,95728.28
2023-01-17T06:14:34.267Z,95721.53
2023-01-17T06:15:38.594Z,95721.66
2023-01-17T06:16:41.591Z,95721.88
2023-01-17T06:17:44.614Z,95717.75
2023-01-17T06:18:47.397Z,95716.09
2023-01-17T06:19:50.159Z,95722.84
2023-01-17T06:20:54.827Z,95723.22
2023-01-17T06:21:57.458Z,95730.56
2023-01-17T06:23:02.794Z,95722.41
2023-01-17T06:24:06.012Z,95726.66
2023-01-17T06:25:09.714Z,95719.75
2023-01-17T06:26:12.589Z,95720.94
2023-01-17T06:27:15.724Z,95719.53
2023-01-17T06:28:22.160Z,95729.22
2023-01-17T06:29:24.925Z,95725.56
2023-01-17T06:30:27.771Z,95728.44
2023-01-17T06:31:30.569Z,95732.84
2023-01-17T06:32:33.634Z,95730.94
2023-01-17T06:33:36.643Z,95732.37
2023-01-17T06:34:39.396Z,95737.06
2023-01-17T06:35:49.679Z,95731.44
2023-01-17T06:36:52.458Z,95732.37
2023-01-17T06:37:58.371Z,95732.37
2023-01-17T06:39:01.028Z,95749.38
2023-01-17T06:40:04.024Z,95743.00
2023-01-17T06:41:06.833Z,95752.09
2023-01-17T06:42:09.760Z,95753.25
2023-01-17T06:43:12.639Z,95755.75
2023-01-17T06:44:15.445Z,95757.06
2023-01-17T06:45:19.029Z,95756.84
2023-01-17T06:46:23.426Z,95760.28
2023-01-17T06:47:26.623Z,95754.00
2023-01-17T06:48:29.373Z,95773.97
2023-01-17T06:49:32.152Z,95763.06
2023-01-17T06:50:35.344Z,95764.97
2023-01-17T06:51:38.064Z,95774.56
2023-01-17T06:52:42.069Z,95769.59
2023-01-17T06:53:44.754Z,95770.53
2023-01-17T06:54:47.771Z,95771.59
2023-01-17T06:55:50.563Z,95772.06
2023-01-17T06:56:53.295Z,95774.22
2023-01-17T06:57:58.014Z,95770.44
2023-01-17T06:59:00.754Z,95775.78
2023-01-17T07:00:04.656Z,95777.31
2023-01-17T07:01:09.220Z,95782.50
2023-01-17T07:02:12.198Z,95790.28
2023-01-17T07:03:21.026Z,95782.38
2023-01-17T07:04:24.023Z,95780.72
2023-01-17T07:05:28.761Z,95791.25
2023-01-17T07:06:31.564Z,95782.84
2023-01-17T07:07:34.975Z,95784.03
2023-01-17T07:08:37.829Z,95794.78
2023-01-17T07:09:40.616Z,95787.25
2023-01-17T07:10:44.813Z,95794.56
2023-01-17T07:11:47.814Z,95801.16
2023-01-17T07:12:51.594Z,95799.78
2023-01-17T07:13:54.414Z,95805.66
2023-01-17T07:14:57.160Z,95815.94
2023-01-17T07:16:04.104Z,95812.16
2023-01-17T07:17:07.110Z,95814.75
2023-01-17T07:18:09.925Z,95815.94
2023-01-17T07:19:12.986Z,95813.47
2023-01-17T07:20:16.733Z,95822.31
2023-01-17T07:21:20.118Z,95816.66
2023-01-17T07:22:23.357Z,95827.41
2023-01-17T07:23:26.439Z,95824.94
2023-01-17T07:24:29.512Z,95829.88
2023-01-17T07:25:32.785Z,95827.41
2023-01-17T07:26:38.065Z,95834.13
2023-01-17T07:27:41.153Z,95826.09
2023-01-17T07:28:44.365Z,95828.12
2023-01-17T07:29:47.295Z,95841.44
2023-01-17T07:30:50.356Z,95836.59
2023-01-17T07:31:53.428Z,95838.72
2023-01-17T07:32:56.718Z,95841.56
2023-01-17T07:33:59.799Z,95843.81
2023-01-17T07:35:02.772Z,95840.25
2023-01-17T07:36:07.698Z,95848.38
2023-01-17T07:37:11.527Z,95854.53
2023-01-17T07:38:20.167Z,95848.88
2023-01-17T07:39:22.949Z,95845.91
2023-01-17T07:40:26.015Z,95855.34
2023-01-17T07:41:32.831Z,95862.78
2023-01-17T07:42:35.616Z,95860.41
2023-01-17T07:43:38.543Z,95867.00
2023-01-17T07:44:44.140Z,95871.97
2023-01-17T07:45:51.685Z,95864.53
2023-01-17T07:46:55.493Z,95874.06
2023-01-17T07:47:58.615Z,95878.81
2023-01-17T07:49:01.358Z,95884.22
2023-01-17T07:50:05.539Z,95886.56
2023-01-17T07:51:09.167Z,95892.59
2023-01-17T07:52:12.112Z,95891.03
2023-01-17T07:53:14.949Z,95891.03
2023-01-17T07:54:17.761Z,95905.41
2023-01-17T07:55:20.356Z,95887.97
2023-01-17T07:56:23.739Z,95904.25
2023-01-17T07:57:26.600Z,95901.88
2023-01-17T07:58:29.472Z,95908.97
2023-01-17T07:59:34.180Z,95910.13
2023-01-17T08:00:38.597Z,95917.78
2023-01-17T08:01:41.578Z,95923.91
2023-01-17T08:02:44.522Z,95919.53
2023-01-17T08:03:51.313Z,95919.97
2023-01-17T08:04:54.289Z,95924.56
2023-01-17T08:05:57.854Z,95915.72
2023-01-17T08:07:02.915Z,95929.88
2023-01-17T08:08:05.827Z,95926.50
2023-01-17T08:09:08.678Z,95924.69
2023-01-17T08:10:13.945Z,95925.88
2023-01-17T08:11:16.701Z,95925.88
2023-01-17T08:12:19.602Z,95925.63
2023-01-17T08:13:22.531Z,95934.06
2023-01-17T08:14:25.766Z,95939.50
2023-01-17T08:15:28.856Z,95936.66
2023-01-17T08:16:31.667Z,95937.81
2023-01-17T08:17:34.952Z,95932.28
2023-01-17T08:18:37.789Z,95934.41
2023-01-17T08:19:41.076Z,95937.56
2023-01-17T08:20:46.951Z,95938.53
2023-01-17T08:21:49.778Z,95939.81
2023-01-17T08:22:54.863Z,95939.13
2023-01-17T08:23:57.786Z,95939.72
2023-01-17T08:25:00.631Z,95940.84
2023-01-17T08:26:03.503Z,95942.28
2023-01-17T08:27:06.418Z,95939.81
2023-01-17T08:28:09.374Z,95937.13
2023-01-17T08:29:12.377Z,95942.66
2023-01-17T08:30:15.484Z,95937.81
2023-01-17T08:31:19.987Z,95940.09
2023-01-17T08:32:23.588Z,95936.53
2023-01-17T08:33:26.318Z,95937.22
2023-01-17T08:34:29.183Z,95933.25
2023-01-17T08:35:32.200Z,95944.81
2023-01-17T08:36:35.024Z,95944.22
2023-01-17T08:37:38.234Z,95947.03
2023-01-17T08:38:41.251Z,95940.47
2023-01-17T08:39:44.126Z,95942.84
2023-01-17T08:40:50.830Z,95951.44
2023-01-17T08:41:53.681Z,95950.59
2023-01-17T08:42:58.592Z,95952.13
2023-01-17T08:44:01.876Z,95947.25
2023-01-17T08:45:06.473Z,95952.19
2023-01-17T08:46:09.297Z,95955.16
2023-01-17T08:47:12.459Z,95951.41
2023-01-17T08:48:15.960Z,95951.78
2023-01-17T08:49:18.923Z,95951.47
2023-01-17T08:50:22.125Z,95947.00
2023-01-17T08:51:27.260Z,95943.50
2023-01-17T08:52:30.497Z,95943.59
2023-01-17T08:53:33.974Z,95948.31
2023-01-17T08:54:36.574Z,95949.16
2023-01-17T08:55:41.140Z,95940.44
2023-01-17T08:56:44.025Z,95941.41
2023-01-17T08:57:47.041Z,95946.09
2023-01-17T08:58:50.182Z,95940.66
2023-01-17T08:59:53.007Z,95942.81
2023-01-17T09:00:59.706Z,95935.38
2023-01-17T09:02:15.045Z,95937.75
2023-01-17T09:03:17.766Z,95939.16
2023-01-17T09:04:20.604Z,95933.16
2023-01-17T09:05:23.463Z,95944.16
2023-01-17T09:06:26.372Z,95948.13
2023-01-17T09:07:29.514Z,95949.56
2023-01-17T09:08:33.591Z,95950.28
2023-01-17T09:09:36.568Z,95958.66
2023-01-17T09:10:39.805Z,95960.44
2023-01-17T09:11:43.375Z,95959.41
2023-01-17T09:12:46.276Z,95957.50
2023-01-17T09:13:49.207Z,95965.19
2023-01-17T09:14:52.374Z,95965.31
2023-01-17T09:15:59.591Z,95970.88
2023-01-17T09:17:02.790Z,95968.28
2023-01-17T09:18:05.659Z,95967.22
2023-01-17T09:19:09.758Z,95972.16
2023-01-17T09:20:12.805Z,95974.44
2023-01-17T09:21:17.634Z,95970.53
2023-01-17T09:22:20.404Z,95980.09
2023-01-17T09:23:24.043Z,95977.03
2023-01-17T09:24:26.777Z,95979.16
2023-01-17T09:25:29.997Z,95972.78
2023-01-17T09:26:32.963Z,95977.63
2023-01-17T09:27:35.838Z,95976.69
2023-01-17T09:28:41.224Z,95974.06
2023-01-17T09:29:43.933Z,95975.38
2023-01-17T09:30:47.368Z,95976.94
2023-01-17T09:31:50.849Z,95973.97
2023-01-17T09:32:56.793Z,95983.78
2023-01-17T09:34:00.088Z,95984.13
2023-01-17T09:35:04.844Z,95982.81
2023-01-17T09:36:07.875Z,95996.56
2023-01-17T09:37:10.713Z,95990.63
2023-01-17T09:38:13.759Z,95999.84
2023-01-17T09:39:17.031Z,95999.84
2023-01-17T09:40:25.550Z,95993.47
2023-01-17T09:41:49.608Z,95997.13
2023-01-17T09:42:58.321Z,96001.03
2023-01-17T09:44:19.414Z,96005.63
2023-01-17T09:45:22.337Z,96007.87
2023-01-17T09:46:30.984Z,96010.69
2023-01-17T09:47:43.919Z,96017.78
2023-01-17T09:48:47.384Z,96015.44
2023-01-17T09:49:51.716Z,96018.50
2023-01-17T09:51:10.979Z,96024.66
2023-01-17T09:52:21.214Z,96031.03
2023-01-17T09:53:24.168Z,96038.25
2023-01-17T09:54:34.231Z,96042.81
2023-01-17T09:55:54.996Z,96036.94
2023-01-17T09:57:36.911Z,96042.47
2023-01-17T09:59:19.253Z,96035.19
2023-01-17T10:00:37.335Z,96040.28
2023-01-17T10:02:01.602Z,96036.47
2023-01-17T10:03:44.027Z,96039.44
2023-01-17T10:05:01.359Z,96040.97
2023-01-17T10:06:31.469Z,96042.28
2023-01-17T10:07:58.098Z,96058.22
2023-01-17T10:09:25.170Z,96056.66
2023-01-17T10:10:47.735Z,96054.78
2023-01-17T10:12:19.574Z,96053.94
2023-01-17T10:13:33.328Z,96054.31
2023-01-17T10:15:03.436Z,96055.97
2023-01-17T10:16:28.950Z,96048.06
2023-01-17T10:17:42.366Z,96054.44
2023-01-17T10:19:10.133Z,96052.56
2023-01-17T10:20:34.461Z,96056.34
2023-01-17T10:21:52.096Z,96057.16
2023-01-17T10:22:57.993Z,96050.19
2023-01-17T10:24:16.581Z,96064.59
2023-01-17T10:25:50.809Z,96058.47
2023-01-17T10:26:56.490Z,96048.62
2023-01-17T10:28:23.379Z,96044.25
2023-01-17T10:29:31.781Z,96039.97
2023-01-17T10:30:39.375Z,96034.66
2023-01-17T10:31:51.653Z,96039.50
2023-01-17T10:32:57.866Z,96036.88
2023-01-17T10:34:24.934Z,96041.38
2023-01-17T10:35:33.573Z,96049.19
2023-01-17T10:36:43.837Z,96041.72
2023-01-17T10:37:48.098Z,96047.25
2023-01-17T10:38:59.110Z,96039.81
2023-01-17T10:40:24.897Z,96030.19
2023-01-17T10:41:43.226Z,96033.78
2023-01-17T10:43:05.269Z,96032.00
2023-01-17T10:44:30.757Z,96027.31
2023-01-17T10:45:43.733Z,96023.66
2023-01-17T10:46:52.641Z,96022.56
2023-01-17T10:48:38.996Z,96020.19
2023-01-17T10:49:53.166Z,96023.78
2023-01-17T10:51:20.577Z,96020.59
2023-01-17T10:52:36.760Z,96025.84
2023-01-17T10:54:20.279Z,96034.72
2023-01-17T10:55:58.623Z,96021.91
2023-01-17T10:57:01.816Z,96022.34
2023-01-17T10:58:05.499Z,96011.06
2023-01-17T10:59:16.166Z,96005.13
2023-01-17T11:00:45.596Z,96010.38
2023-01-17T11:01:50.902Z,96011.06
2023-01-17T11:02:54.791Z,96004.72
2023-01-17T11:03:58.742Z,96012.53
2023-01-17T11:05:20.745Z,96007.69
2023-01-17T11:06:26.353Z,96007.56
2023-01-17T11:07:30.118Z,96004.41
2023-01-17T11:09:11.277Z,95990.41
2023-01-17T11:10:36.939Z,95992.28
2023-01-17T11:11:50.693Z,95978.44
2023-01-17T11:12:54.312Z,95982.94
2023-01-17T11:14:02.138Z,95990.31
2023-01-17T11:15:11.103Z,95986.34
2023-01-17T11:16:32.651Z,95993.09
2023-01-17T11:17:49.179Z,95987.75
2023-01-17T11:19:12.643Z,95982.03
2023-01-17T11:20:24.560Z,95986.25
2023-01-17T11:21:27.474Z,95978.09
2023-01-17T11:22:31.100Z,95985.16
2023-01-17T11:23:34.483Z,95977.06
2023-01-17T11:24:56.152Z,95978.78
2023-01-17T11:26:03.297Z,95976.69
2023-01-17T11:27:07.678Z,95966.69
2023-01-17T11:28:23.407Z,95969.22
2023-01-17T11:29:34.174Z,95965.78
2023-01-17T11:30:55.778Z,95965.50
2023-01-17T11:32:28.289Z,95964.72
2023-01-17T11:33:46.039Z,95966.53
2023-01-17T11:35:11.052Z,95960.19
2023-01-17T11:36:31.277Z,95958.16
2023-01-17T11:37:35.480Z,95953.63
2023-01-17T11:38:38.341Z,95952.19
2023-01-17T11:39:42.451Z,95954.34
2023-01-17T11:40:49.560Z,95954.13
2023-01-17T11:41:53.000Z,95948.44
2023-01-17T11:43:21.515Z,95942.19
2023-01-17T11:44:29.115Z,95943.59
2023-01-17T11:45:35.422Z,95936.59
2023-01-17T11:46:39.207Z,95939.44
2023-01-17T11:47:41.976Z,95932.94
2023-01-17T11:48:51.480Z,95930.22
2023-01-17T11:49:55.580Z,95934.47
2023-01-17T11:50:59.559Z,95942.12
2023-01-17T11:52:33.007Z,95941.09
2023-01-17T11:53:40.485Z,95943.22
2023-01-17T11:54:47.037Z,95944.44
2023-01-17T11:56:06.365Z,95946.56
2023-01-17T11:57:31.845Z,95945.84
2023-01-17T11:58:38.882Z,95951.53
2023-01-17T11:59:45.451Z,95954.66
2023-01-17T12:01:01.181Z,95965.16
2023-01-17T12:02:37.708Z,95967.16
2023-01-17T12:04:08.348Z,95974.66
2023-01-17T12:05:36.068Z,95984.34
2023-01-17T12:06:58.081Z,95985.38
2023-01-17T12:08:06.937Z,95978.31
2023-01-17T12:09:42.813Z,95975.88
2023-01-17T12:11:10.819Z,95979.59
2023-01-17T12:12:56.674Z,95983.75
2023-01-17T12:14:30.716Z,95989.09
2023-01-17T12:15:42.580Z,95982.34
2023-01-17T12:17:11.807Z,95984.03
2023-01-17T12:18:33.718Z,95981.75
2023-01-17T12:19:55.698Z,95976.06
2023-01-17T12:21:18.137Z,95980.50
2023-01-17T12:22:33.952Z,95980.31
2023-01-17T12:24:24.256Z,95985.56
2023-01-17T12:25:48.134Z,95974.16
2023-01-17T12:26:59.295Z,95975.38
2023-01-17T12:28:18.827Z,95977.59
2023-01-17T12:29:43.384Z,95975.47
2023-01-17T12:31:07.187Z,95972.53
2023-01-17T12:32:35.759Z,95980.22
2023-01-17T12:34:07.165Z,95991.75
2023-01-17T12:35:38.844Z,95973.94
2023-01-17T12:37:02.406Z,95978.19
2023-01-17T12:38:18.063Z,95975.38
2023-01-17T12:39:36.608Z,95978.09
2023-01-17T12:40:56.872Z,95978.00
2023-01-17T12:42:03.624Z,95971.81
2023-01-17T12:43:33.649Z,95963.03
2023-01-17T12:44:47.081Z,95969.72
2023-01-17T12:45:51.933Z,95977.69
2023-01-17T12:47:02.953Z,95974.66
2023-01-17T12:48:12.487Z,95974.38
2023-01-17T12:49:33.881Z,95973.44
2023-01-17T12:50:49.228Z,95972.84
2023-01-17T12:52:10.911Z,95965.56
2023-01-17T12:53:41.426Z,95966.38
2023-01-17T12:54:50.578Z,95965.56
2023-01-17T12:56:03.583Z,95960.31
2023-01-17T12:57:14.022Z,95963.44
2023-01-17T12:58:27.126Z,95964.88
2023-01-17T12:59:38.076Z,95958.62
2023-01-17T13:00:46.573Z,95959.91
2023-01-17T13:01:57.974Z,95961.84
2023-01-17T13:03:16.341Z,95963.03
2023-01-17T13:04:26.202Z,95959.09
2023-01-17T13:05:41.131Z,95963.25
2023-01-17T13:06:53.164Z,95953.66
2023-01-17T13:08:18.207Z,95960.22
2023-01-17T13:09:23.827Z,95952.84
2023-01-17T13:10:41.673Z,95956.88
2023-01-17T13:11:52.151Z,95960.22
2023-01-17T13:13:00.329Z,95954.16
2023-01-17T13:14:03.208Z,95965.06
2023-01-17T13:15:19.798Z,95961.34
2023-01-17T13:16:30.356Z,95962.44
2023-01-17T13:17:36.337Z,95956.06
2023-01-17T13:18:47.293Z,95958.09
2023-01-17T13:19:59.238Z,95957.97
2023-01-17T13:21:07.767Z,95960.00
2023-01-17T13:22:19.427Z,95973.06
2023-01-17T13:24:07.199Z,95967.38
2023-01-17T13:25:45.077Z,95965.56
2023-01-17T13:27:05.060Z,95967.88
2023-01-17T13:28:23.213Z,95967.66
2023-01-17T13:30:07.847Z,95967.38
2023-01-17T13:31:25.807Z,95965.56
2023-01-17T13:32:50.248Z,95971.94
2023-01-17T13:34:14.015Z,95974.13
2023-01-17T13:35:28.629Z,95972.09
2023-01-17T13:36:44.700Z,95964.22